Time;durP1;ratioP1;P1;durP2;ratioP2;P2;SDS_P1;SDS_P2;PMS_P1;PMS_P2;Temp;Humidity;BMP_temperature;BMP_pressure;BME280_temperature;BME280_humidity;BME280_pressure;Samples;Min_cycle;Max_cycle;Signal;HPM_P1;HPM_P2
2022/04/04 00:00:06;;;;;;;15.25;8.93;;;8.50;53.10;;;;;;6159412;23;20045;-84
2022/04/04 00:02:33;;;;;;;18.48;9.40;;;8.50;52.90;;;;;;6159600;23;20402;-83
2022/04/04 00:05:01;;;;;;;16.05;10.98;;;8.50;52.90;;;;;;6160124;23;20060;-84
2022/04/04 00:07:28;;;;;;;18.70;10.65;;;8.40;53.00;;;;;;6159602;23;20026;-83
2022/04/04 00:09:55;;;;;;;15.98;10.63;;;8.50;53.40;;;;;;6160754;23;20103;-83
2022/04/04 00:12:24;;;;;;;17.13;10.48;;;8.50;53.50;;;;;;6158086;23;20025;-84
2022/04/04 00:14:51;;;;;;;17.92;10.13;;;8.50;53.50;;;;;;6159410;23;20064;-83
2022/04/04 00:17:18;;;;;;;17.95;10.55;;;8.40;54.00;;;;;;6160155;23;20021;-83
2022/04/04 00:19:46;;;;;;;18.05;9.88;;;8.40;53.20;;;;;;6157409;23;20049;-83
2022/04/04 00:22:12;;;;;;;17.73;9.50;;;8.30;53.30;;;;;;6158263;23;20036;-84
2022/04/04 00:24:39;;;;;;;17.60;9.50;;;8.20;53.40;;;;;;6158786;23;20021;-84
2022/04/04 00:27:06;;;;;;;17.13;9.77;;;8.20;53.60;;;;;;6165591;23;20025;-83
2022/04/04 00:29:35;;;;;;;20.02;9.20;;;8.10;53.80;;;;;;6181234;23;20030;-84
2022/04/04 00:32:02;;;;;;;19.00;10.18;;;8.10;53.80;;;;;;6182766;23;20084;-83
2022/04/04 00:34:28;;;;;;;19.48;10.43;;;8.00;54.00;;;;;;6180645;23;20033;-82
2022/04/04 00:36:55;;;;;;;15.18;9.30;;;8.00;54.20;;;;;;6166950;23;20061;-82
2022/04/04 00:39:22;;;;;;;14.52;9.75;;;8.00;54.30;;;;;;6159276;23;20029;-83
2022/04/04 00:41:49;;;;;;;17.10;10.13;;;8.00;54.30;;;;;;6158410;23;20076;-82
2022/04/04 00:44:16;;;;;;;15.10;9.32;;;8.00;54.30;;;;;;6159059;23;20081;-82
2022/04/04 00:46:45;;;;;;;15.70;10.20;;;8.00;54.20;;;;;;6160347;23;20064;-82
2022/04/04 00:49:12;;;;;;;18.55;10.52;;;8.00;54.10;;;;;;6159355;23;20077;-83
2022/04/04 00:51:39;;;;;;;18.00;10.05;;;8.00;54.20;;;;;;6158330;23;20166;-82
2022/04/04 00:54:07;;;;;;;17.80;10.35;;;8.00;54.10;;;;;;6158085;23;20056;-83
2022/04/04 00:56:35;;;;;;;18.35;10.70;;;8.00;54.30;;;;;;6159995;23;20112;-83
2022/04/04 00:59:03;;;;;;;14.20;9.77;;;8.00;54.40;;;;;;6159413;23;20040;-83
2022/04/04 01:01:30;;;;;;;17.70;10.57;;;7.90;54.30;;;;;;6159252;23;20029;-82
2022/04/04 01:03:59;;;;;;;22.75;9.93;;;7.90;54.20;;;;;;6159272;23;20463;-82
2022/04/04 01:06:26;;;;;;;16.58;10.25;;;7.90;54.00;;;;;;6159055;23;20396;-82
2022/04/04 01:08:53;;;;;;;15.20;10.35;;;7.80;54.10;;;;;;6159139;23;20029;-83
2022/04/04 01:11:20;;;;;;;20.25;10.65;;;7.80;54.10;;;;;;6159857;23;20044;-82
2022/04/04 01:13:47;;;;;;;20.50;10.02;;;7.70;54.30;;;;;;6160839;23;20025;-82
2022/04/04 01:16:15;;;;;;;20.35;10.65;;;7.70;54.40;;;;;;6162283;23;20133;-84
2022/04/04 01:18:42;;;;;;;22.35;10.63;;;7.60;54.60;;;;;;6160173;23;20036;-84
2022/04/04 01:21:11;;;;;;;16.67;10.27;;;7.50;54.60;;;;;;6159022;23;20076;-83
2022/04/04 01:23:42;;;;;;;16.40;10.02;;;7.50;54.60;;;;;;6157822;23;20048;-83
2022/04/04 01:26:11;;;;;;;18.85;10.68;;;7.50;54.70;;;;;;6158743;23;20064;-82
2022/04/04 01:28:39;;;;;;;20.15;10.05;;;7.50;54.70;;;;;;6158071;23;20021;-83
2022/04/04 01:31:07;;;;;;;14.93;9.55;;;7.60;54.60;;;;;;6159755;23;20025;-82
2022/04/04 01:33:34;;;;;;;14.63;9.05;;;7.60;54.70;;;;;;6157645;23;20025;-83
2022/04/04 01:36:01;;;;;;;18.08;9.50;;;7.60;54.60;;;;;;6158385;23;20029;-83
2022/04/04 01:38:27;;;;;;;15.20;9.52;;;7.60;54.40;;;;;;6158280;23;20039;-83
2022/04/04 01:40:55;;;;;;;15.02;9.75;;;7.60;54.40;;;;;;6159643;23;20333;-84
2022/04/04 01:43:23;;;;;;;15.73;9.82;;;7.60;54.30;;;;;;6162121;23;20332;-83
2022/04/04 01:48:37;;;;;;;18.55;9.57;;;7.60;54.50;;;;;;6160145;23;20163;-83
2022/04/04 01:51:04;;;;;;;15.75;9.77;;;7.60;54.40;;;;;;6159441;23;20029;-84
2022/04/04 01:53:32;;;;;;;15.38;10.00;;;7.60;54.20;;;;;;6159058;23;20025;-83
2022/04/04 01:56:01;;;;;;;22.45;10.15;;;7.60;54.20;;;;;;6159066;23;20044;-83
2022/04/04 01:58:30;;;;;;;18.15;9.63;;;7.50;54.50;;;;;;6159528;23;20045;-83
2022/04/04 02:01:01;;;;;;;18.85;9.38;;;7.50;54.60;;;;;;6159603;23;20082;-83
2022/04/04 02:03:29;;;;;;;20.38;9.95;;;7.50;54.50;;;;;;6158700;23;20034;-83
2022/04/04 02:05:56;;;;;;;17.63;9.93;;;7.50;54.50;;;;;;6161063;23;20033;-82
2022/04/04 02:08:24;;;;;;;18.27;9.80;;;7.40;54.50;;;;;;6175935;23;20018;-83
2022/04/04 02:10:50;;;;;;;15.90;9.57;;;7.40;54.50;;;;;;6181157;23;20017;-83
2022/04/04 02:13:17;;;;;;;17.83;9.98;;;7.40;54.50;;;;;;6170568;23;20029;-82
2022/04/04 02:15:46;;;;;;;17.77;10.77;;;7.40;54.50;;;;;;6165513;23;20022;-84
2022/04/04 02:18:13;;;;;;;18.80;10.40;;;7.40;54.80;;;;;;6161840;23;20025;-83
2022/04/04 02:20:40;;;;;;;16.15;9.75;;;7.30;54.90;;;;;;6160549;23;20077;-83
2022/04/04 02:23:08;;;;;;;16.40;10.15;;;7.30;54.90;;;;;;6159374;23;20661;-84
2022/04/04 02:25:35;;;;;;;17.13;10.45;;;7.20;54.80;;;;;;6159276;23;20029;-82
2022/04/04 02:28:02;;;;;;;15.63;9.82;;;7.20;55.00;;;;;;6159871;23;20108;-83
2022/04/04 02:30:29;;;;;;;13.65;9.23;;;7.20;55.20;;;;;;6159312;23;20084;-83
2022/04/04 02:32:57;;;;;;;19.15;10.25;;;7.10;55.10;;;;;;6159560;23;20526;-83
2022/04/04 02:35:24;;;;;;;16.65;10.38;;;7.10;55.20;;;;;;6159839;23;20440;-82
2022/04/04 02:37:51;;;;;;;18.15;9.65;;;7.10;55.20;;;;;;6161274;23;20041;-83
2022/04/04 02:40:18;;;;;;;16.25;9.65;;;7.10;55.30;;;;;;6167334;23;20057;-81
2022/04/04 02:42:45;;;;;;;20.15;10.38;;;7.00;55.20;;;;;;6164045;23;20518;-83
2022/04/04 02:45:12;;;;;;;20.05;10.70;;;7.00;55.30;;;;;;6162626;23;20138;-84
2022/04/04 02:47:39;;;;;;;19.83;10.52;;;7.00;55.50;;;;;;6167129;23;20036;-83
2022/04/04 02:50:09;;;;;;;15.88;9.45;;;6.90;55.40;;;;;;6166623;23;20029;-83
2022/04/04 02:52:36;;;;;;;18.38;9.45;;;7.00;55.50;;;;;;6173898;23;20092;-83
2022/04/04 02:56:28;;;;;;;18.95;10.27;;;7.00;55.30;;;;;;6176734;23;20008;-84
2022/04/04 02:57:50;;;;;;;17.00;9.75;;;6.90;55.30;;;;;;6174350;23;20030;-84
2022/04/04 03:00:19;;;;;;;17.00;9.95;;;6.90;55.30;;;;;;6174251;23;20600;-84
2022/04/04 03:02:46;;;;;;;17.42;10.32;;;6.90;55.40;;;;;;6174694;23;20049;-83
2022/04/04 03:05:15;;;;;;;18.40;10.68;;;6.90;55.60;;;;;;6172543;23;20060;-83
2022/04/04 03:07:42;;;;;;;19.80;10.82;;;6.80;55.60;;;;;;6170869;23;20380;-83
2022/04/04 03:10:11;;;;;;;18.90;10.32;;;6.80;55.90;;;;;;6171648;23;20040;-82
2022/04/04 03:12:42;;;;;;;16.08;9.98;;;6.70;56.00;;;;;;6165972;23;20049;-83
2022/04/04 03:15:11;;;;;;;20.92;10.35;;;6.70;55.70;;;;;;6161174;23;20021;-84
2022/04/04 03:17:39;;;;;;;20.17;11.23;;;6.70;55.70;;;;;;6161618;23;20025;-82
2022/04/04 03:20:09;;;;;;;21.35;10.20;;;6.70;55.90;;;;;;6160646;23;20057;-84
2022/04/04 03:22:40;;;;;;;18.05;9.80;;;6.70;56.10;;;;;;6157455;23;20035;-82
2022/04/04 03:25:08;;;;;;;15.65;9.63;;;6.70;56.00;;;;;;6158035;23;20026;-82
2022/04/04 03:27:36;;;;;;;16.63;10.05;;;6.70;56.00;;;;;;6158467;23;20033;-83
2022/04/04 03:30:03;;;;;;;17.20;9.82;;;6.80;56.10;;;;;;6158134;23;20149;-83
2022/04/04 03:32:30;;;;;;;18.10;10.65;;;6.70;56.10;;;;;;6158029;23;20100;-83
2022/04/04 03:34:57;;;;;;;18.13;10.55;;;6.80;56.00;;;;;;6160867;23;20037;-82
2022/04/04 03:37:24;;;;;;;18.88;10.18;;;6.70;55.90;;;;;;6162454;23;20053;-81
2022/04/04 03:39:52;;;;;;;19.98;10.63;;;6.70;55.70;;;;;;6162605;23;20025;-83
2022/04/04 03:42:20;;;;;;;18.20;10.55;;;6.70;55.70;;;;;;6157969;23;20466;-83
2022/04/04 03:44:47;;;;;;;18.50;10.05;;;6.70;55.70;;;;;;6157527;23;20021;-82
2022/04/04 03:47:18;;;;;;;16.25;10.38;;;6.70;55.70;;;;;;6157947;23;20040;-82
2022/04/04 03:49:45;;;;;;;19.97;10.57;;;6.80;55.50;;;;;;6157440;23;20045;-84
2022/04/04 03:52:12;;;;;;;19.10;10.63;;;6.80;55.40;;;;;;6158455;23;20287;-83
2022/04/04 03:54:39;;;;;;;17.80;10.27;;;6.80;55.50;;;;;;6157033;23;20514;-83
2022/04/04 03:57:07;;;;;;;18.63;9.75;;;6.90;55.40;;;;;;6157100;23;20560;-83
2022/04/04 03:59:34;;;;;;;21.45;9.50;;;6.90;55.30;;;;;;6157270;23;20092;-83
2022/04/04 04:02:01;;;;;;;18.70;10.50;;;6.90;55.10;;;;;;6157210;23;20033;-82
2022/04/04 04:04:28;;;;;;;19.98;10.55;;;6.80;55.10;;;;;;6159728;23;20097;-83
2022/04/04 04:06:55;;;;;;;18.77;10.70;;;6.80;55.20;;;;;;6163927;23;20081;-82
2022/04/04 04:09:22;;;;;;;21.83;10.13;;;6.70;55.40;;;;;;6161782;23;20053;-82
2022/04/04 04:11:49;;;;;;;21.85;11.13;;;6.70;55.70;;;;;;6158973;23;20088;-82
2022/04/04 04:14:17;;;;;;;20.25;10.65;;;6.70;55.60;;;;;;6158366;23;20030;-82
2022/04/04 04:16:44;;;;;;;23.02;11.73;;;6.60;55.80;;;;;;6159146;23;20029;-82
2022/04/04 04:20:19;;;;;;;25.48;10.63;;;6.60;55.80;;;;;;6161234;23;20063;-83
2022/04/04 04:21:58;;;;;;;21.92;10.88;;;6.60;55.80;;;;;;6160029;23;20077;-84
2022/04/04 04:24:26;;;;;;;18.83;10.43;;;6.60;55.90;;;;;;6158491;23;20092;-82
2022/04/04 04:26:53;;;;;;;22.77;11.23;;;6.50;55.80;;;;;;6158337;23;20029;-82
2022/04/04 04:29:21;;;;;;;20.52;11.35;;;6.50;56.00;;;;;;6155891;23;20021;-82
2022/04/04 04:31:48;;;;;;;26.55;12.15;;;6.50;56.10;;;;;;6156955;23;20025;-81
2022/04/04 04:34:18;;;;;;;18.80;10.85;;;6.40;55.90;;;;;;6158310;23;20029;-80
2022/04/04 04:36:45;;;;;;;25.42;11.05;;;6.40;56.20;;;;;;6165115;23;20029;-83
2022/04/04 04:39:11;;;;;;;25.92;12.30;;;6.40;56.30;;;;;;6162592;23;20052;-83
2022/04/04 04:41:38;;;;;;;22.15;12.10;;;6.40;56.50;;;;;;6175136;23;20041;-83
2022/04/04 04:44:06;;;;;;;23.50;12.57;;;6.40;56.80;;;;;;6179799;23;20018;-81
2022/04/04 04:46:34;;;;;;;26.13;12.98;;;6.40;56.50;;;;;;6180113;23;20032;-81
2022/04/04 04:49:01;;;;;;;21.23;11.50;;;6.30;56.50;;;;;;6180936;23;20077;-83
2022/04/04 04:51:28;;;;;;;19.42;11.23;;;6.30;56.60;;;;;;6178806;23;20025;-83
2022/04/04 04:53:55;;;;;;;23.50;11.25;;;6.30;56.60;;;;;;6177463;23;20013;-82
2022/04/04 04:56:22;;;;;;;22.40;11.90;;;6.30;56.90;;;;;;6176346;23;20053;-83
2022/04/04 04:58:49;;;;;;;23.20;11.60;;;6.30;56.80;;;;;;6177971;23;20033;-82
2022/04/04 05:01:16;;;;;;;23.88;12.48;;;6.30;56.80;;;;;;6178475;23;20009;-78
2022/04/04 05:03:44;;;;;;;26.23;11.70;;;6.40;56.70;;;;;;6168677;23;20036;-82
2022/04/04 05:06:11;;;;;;;26.23;11.90;;;6.30;56.30;;;;;;6161408;23;20105;-82
2022/04/04 05:08:38;;;;;;;24.60;11.80;;;6.30;56.50;;;;;;6159862;23;20037;-82
2022/04/04 05:11:06;;;;;;;21.35;12.00;;;6.30;56.30;;;;;;6159557;23;20079;-82
2022/04/04 05:13:32;;;;;;;22.15;11.77;;;6.30;56.20;;;;;;6159260;23;20088;-82
2022/04/04 05:15:59;;;;;;;23.48;12.63;;;6.30;56.40;;;;;;6160040;23;20121;-84
2022/04/04 05:18:26;;;;;;;24.20;12.18;;;6.30;56.30;;;;;;6160620;23;20052;-83
2022/04/04 05:20:55;;;;;;;30.08;14.27;;;6.30;56.90;;;;;;6162628;23;20036;-83
2022/04/04 05:23:22;;;;;;;25.08;12.90;;;6.30;56.30;;;;;;6177230;23;20033;-84
2022/04/04 05:25:50;;;;;;;26.38;14.05;;;6.30;56.40;;;;;;6180496;23;20041;-81
2022/04/04 05:28:17;;;;;;;28.08;15.45;;;6.30;56.60;;;;;;6178259;23;20025;-80
2022/04/04 05:30:44;;;;;;;29.38;15.40;;;6.20;56.50;;;;;;6181641;23;20033;-82
2022/04/04 05:33:10;;;;;;;27.27;15.23;;;6.20;56.60;;;;;;6175895;23;20419;-82
2022/04/04 05:35:37;;;;;;;30.25;14.77;;;6.20;56.90;;;;;;6161275;23;20045;-83
2022/04/04 05:38:06;;;;;;;31.20;16.23;;;6.10;56.90;;;;;;6160948;23;20049;-82
2022/04/04 05:40:34;;;;;;;38.25;16.40;;;6.10;56.90;;;;;;6157471;23;20057;-82
2022/04/04 05:43:01;;;;;;;32.08;17.98;;;6.20;56.80;;;;;;6157911;23;20021;-82
2022/04/04 05:45:30;;;;;;;31.58;18.30;;;6.10;56.90;;;;;;6157729;23;20025;-82
2022/04/04 05:47:57;;;;;;;32.92;17.23;;;6.10;57.00;;;;;;6168418;23;20020;-82
2022/04/04 05:50:24;;;;;;;34.63;18.15;;;6.10;57.10;;;;;;6180688;23;20036;-82
2022/04/04 05:52:51;;;;;;;36.13;17.67;;;6.10;57.00;;;;;;6175602;23;20048;-82
2022/04/04 05:55:19;;;;;;;32.30;15.48;;;6.10;57.10;;;;;;6164913;23;20064;-81
2022/04/04 05:57:46;;;;;;;30.40;15.65;;;6.10;57.20;;;;;;6164449;23;20388;-83
2022/04/04 06:00:15;;;;;;;31.48;16.55;;;6.10;57.00;;;;;;6164207;23;20057;-84
2022/04/04 06:02:43;;;;;;;35.40;15.65;;;6.20;57.00;;;;;;6160935;23;20029;-82
2022/04/04 06:05:11;;;;;;;36.67;16.90;;;6.30;57.00;;;;;;6156388;23;20032;-90
2022/04/04 06:07:39;;;;;;;33.88;17.88;;;6.30;57.10;;;;;;6172759;23;20053;-92
2022/04/04 06:10:08;;;;;;;32.85;17.10;;;6.40;57.20;;;;;;6177612;23;20025;-90
2022/04/04 06:12:38;;;;;;;30.35;17.10;;;6.40;57.20;;;;;;6161303;23;20061;-78
2022/04/04 06:15:06;;;;;;;32.45;17.02;;;6.50;57.20;;;;;;6151721;23;20025;-78
2022/04/04 06:17:33;;;;;;;32.92;16.70;;;6.50;57.30;;;;;;6126094;23;20052;-81
2022/04/04 06:19:59;;;;;;;29.27;17.35;;;6.50;57.30;;;;;;6152404;23;20068;-78
2022/04/04 06:22:27;;;;;;;29.20;17.02;;;6.60;57.20;;;;;;6152604;23;20025;-80
2022/04/04 06:24:54;;;;;;;30.55;15.43;;;6.60;57.00;;;;;;6158962;23;20109;-89
2022/04/04 06:27:21;;;;;;;27.33;16.75;;;6.70;57.00;;;;;;6153938;23;20045;-89
2022/04/04 06:29:49;;;;;;;32.53;17.00;;;6.70;57.00;;;;;;6129822;23;20017;-87
2022/04/04 06:32:16;;;;;;;32.72;16.52;;;6.80;56.90;;;;;;6153959;23;20022;-85
2022/04/04 06:34:43;;;;;;;28.25;17.05;;;6.80;56.90;;;;;;6164803;23;20036;-90
2022/04/04 06:37:10;;;;;;;34.75;16.52;;;6.90;57.20;;;;;;6170384;23;20025;-89
2022/04/04 06:39:37;;;;;;;32.08;16.23;;;6.90;57.40;;;;;;6119425;23;20029;-86
2022/04/04 06:42:05;;;;;;;28.63;15.85;;;6.90;57.20;;;;;;6167757;23;20025;-89
2022/04/04 06:44:32;;;;;;;26.42;15.75;;;6.90;57.00;;;;;;6096283;23;20669;-88
2022/04/04 06:47:00;;;;;;;26.30;14.77;;;7.00;57.70;;;;;;6157197;23;20056;-78
2022/04/04 06:49:27;;;;;;;34.85;15.98;;;7.00;56.90;;;;;;6162330;23;20064;-78
2022/04/04 06:51:56;;;;;;;31.00;15.02;;;7.10;57.00;;;;;;6183625;23;20010;-86
2022/04/04 06:54:27;;;;;;;30.60;16.30;;;7.10;56.80;;;;;;6165162;23;20010;-86
2022/04/04 06:56:55;;;;;;;40.58;18.95;;;7.10;56.80;;;;;;6180655;23;20025;-88
2022/04/04 06:59:23;;;;;;;27.50;13.35;;;7.20;57.10;;;;;;6181516;23;20029;-86
2022/04/04 07:01:50;;;;;;;22.65;13.25;;;7.20;57.00;;;;;;6182145;23;20032;-85
2022/04/04 07:04:18;;;;;;;21.75;11.98;;;7.30;56.90;;;;;;6182495;23;20025;-86
2022/04/04 07:06:46;;;;;;;22.52;11.93;;;7.30;56.70;;;;;;6182371;23;20032;-84
2022/04/04 07:09:13;;;;;;;26.65;12.73;;;7.40;56.70;;;;;;6178361;23;20041;-86
2022/04/04 07:12:09;;;;;;;25.63;12.55;;;7.40;57.70;;;;;;6180948;23;20018;-85
2022/04/04 07:14:41;;;;;;;23.58;11.93;;;7.50;57.00;;;;;;6180024;23;20036;-84
2022/04/04 07:17:09;;;;;;;27.17;12.07;;;7.50;56.80;;;;;;6160680;23;20025;-81
2022/04/04 07:19:52;;;;;;;20.63;10.82;;;7.60;57.00;;;;;;6143042;23;20368;-82
2022/04/04 07:22:28;;;;;;;21.90;10.15;;;7.70;57.10;;;;;;6154410;23;20041;-82
2022/04/04 07:25:07;;;;;;;19.80;9.73;;;7.80;56.90;;;;;;6158444;23;20478;-81
2022/04/04 07:27:35;;;;;;;15.45;8.52;;;7.80;56.90;;;;;;6139918;23;20084;-80
2022/04/04 07:30:18;;;;;;;14.80;8.65;;;7.90;56.70;;;;;;6153377;23;20088;-81
2022/04/04 07:33:01;;;;;;;10.07;5.80;;;8.00;56.60;;;;;;6152866;23;20033;-82
2022/04/04 07:35:59;;;;;;;13.05;7.40;;;8.00;55.20;;;;;;6139293;23;20022;-82
2022/04/04 07:38:29;;;;;;;11.77;6.20;;;8.10;55.90;;;;;;6139295;23;20057;-82
2022/04/04 07:40:59;;;;;;;16.13;6.28;;;8.20;55.60;;;;;;6152671;23;20029;-82
2022/04/04 07:43:53;;;;;;;7.63;4.63;;;8.30;55.60;;;;;;6137770;23;20022;-82
2022/04/04 07:46:37;;;;;;;21.40;5.60;;;8.30;55.70;;;;;;6137329;23;20021;-83
2022/04/04 07:49:14;;;;;;;6.80;3.50;;;8.40;55.30;;;;;;6152528;23;20028;-82
2022/04/04 07:51:47;;;;;;;4.13;2.97;;;8.40;53.80;;;;;;6112677;23;20112;-80
2022/04/04 07:54:24;;;;;;;10.75;4.10;;;8.30;52.30;;;;;;6153409;23;20040;-82
2022/04/04 08:25:57;;;;;;;6.32;3.72;;;8.20;53.00;;;;;;5631231;22;15226665;-83
2022/04/04 08:29:42;;;;;;;8.43;3.42;;;8.60;52.50;;;;;;6198248;23;20039;-82
2022/04/04 08:32:12;;;;;;;5.35;3.22;;;8.70;52.60;;;;;;6252791;23;20020;-80
2022/04/04 08:40:53;;;;;;;4.63;2.60;;;8.50;51.80;;;;;;6233681;23;20024;-83
2022/04/04 08:43:32;;;;;;;4.80;3.00;;;8.40;51.50;;;;;;6232080;23;20415;-82
2022/04/04 08:46:07;;;;;;;5.57;2.75;;;8.50;51.50;;;;;;6249792;23;20082;-80
2022/04/04 08:48:57;;;;;;;5.63;2.67;;;8.60;51.40;;;;;;6249546;23;20024;-81
2022/04/04 08:51:42;;;;;;;4.95;2.75;;;8.70;51.20;;;;;;6249216;23;20035;-80
2022/04/04 08:54:18;;;;;;;6.20;3.28;;;8.60;51.10;;;;;;6248096;23;20024;-82
2022/04/04 08:57:16;;;;;;;3.88;2.90;;;8.80;51.50;;;;;;6252567;23;20097;-82
2022/04/04 09:00:00;;;;;;;3.97;2.72;;;8.80;50.60;;;;;;6250215;23;20024;-81
2022/04/04 09:02:56;;;;;;;5.93;2.45;;;8.90;50.80;;;;;;6249085;23;20042;-81
2022/04/04 09:05:42;;;;;;;5.55;2.40;;;9.00;50.30;;;;;;6251070;23;20034;-82
2022/04/04 09:08:12;;;;;;;5.93;2.28;;;9.10;50.10;;;;;;6251231;23;20090;-82
2022/04/04 09:10:42;;;;;;;9.43;2.50;;;9.10;49.30;;;;;;6250621;23;20388;-83
2022/04/04 09:13:13;;;;;;;8.00;2.30;;;9.20;48.70;;;;;;6254502;23;20372;-86
2022/04/04 09:15:54;;;;;;;2.78;2.10;;;9.20;48.30;;;;;;6254290;23;20032;-81
2022/04/04 09:18:41;;;;;;;3.05;1.90;;;9.10;48.10;;;;;;6253307;23;20456;-81
2022/04/04 09:21:10;;;;;;;4.05;2.35;;;9.20;48.80;;;;;;6254265;23;20449;-81
2022/04/04 09:23:51;;;;;;;3.70;2.17;;;9.30;47.90;;;;;;6254079;23;20502;-82
2022/04/04 09:26:28;;;;;;;3.65;2.15;;;9.50;48.70;;;;;;6261483;23;20028;-87
2022/04/04 09:28:58;;;;;;;3.88;2.22;;;9.40;47.00;;;;;;6253223;23;20026;-82
2022/04/04 09:31:25;;;;;;;41.38;20.55;;;9.50;47.20;;;;;;6250564;23;20035;-78
2022/04/04 09:33:53;;;;;;;7.03;2.30;;;9.30;47.30;;;;;;6271780;22;20023;-82
2022/04/04 09:36:21;;;;;;;6.57;2.22;;;9.40;47.50;;;;;;6270933;22;20051;-82
2022/04/04 09:38:56;;;;;;;6.05;1.63;;;9.60;46.30;;;;;;6259712;23;20024;-81
2022/04/04 09:41:25;;;;;;;4.55;1.90;;;9.30;45.40;;;;;;6252344;23;20365;-82
2022/04/04 09:43:53;;;;;;;5.30;1.60;;;9.30;44.70;;;;;;6249125;23;20020;-81
2022/04/04 09:46:22;;;;;;;6.80;1.90;;;9.10;44.40;;;;;;6249604;23;20228;-82
2022/04/04 09:49:17;;;;;;;10.45;1.67;;;9.10;44.20;;;;;;6251736;23;20020;-82
2022/04/04 09:51:47;;;;;;;6.93;1.80;;;9.30;44.80;;;;;;6128084;23;20093;-82
2022/04/04 09:54:17;;;;;;;5.10;1.60;;;9.50;45.30;;;;;;6103541;23;20083;-81
2022/04/04 09:56:46;;;;;;;4.05;1.75;;;9.50;43.20;;;;;;6099230;23;20030;-82
2022/04/04 09:59:15;;;;;;;7.70;2.08;;;9.30;43.60;;;;;;6098179;23;20105;-81
2022/04/04 10:01:46;;;;;;;5.88;1.88;;;9.40;43.60;;;;;;6097698;23;20544;-82
2022/04/04 10:04:14;;;;;;;5.10;1.77;;;9.60;43.60;;;;;;6098278;23;20085;-81
2022/04/04 10:06:42;;;;;;;8.45;2.00;;;9.40;43.60;;;;;;6096515;23;20026;-81
2022/04/04 10:09:10;;;;;;;2.78;1.80;;;9.30;44.20;;;;;;6096257;23;20026;-82
2022/04/04 10:11:40;;;;;;;3.75;2.05;;;9.30;45.10;;;;;;6097651;23;20030;-83
2022/04/04 10:14:07;;;;;;;7.90;2.10;;;9.40;45.30;;;;;;6096888;23;20041;-83
2022/04/04 10:16:35;;;;;;;3.05;2.50;;;9.60;45.60;;;;;;6101165;23;20027;-81
2022/04/04 10:19:03;;;;;;;3.00;2.00;;;9.40;46.30;;;;;;6097505;23;20027;-83
2022/04/04 10:21:30;;;;;;;4.30;2.03;;;9.50;46.40;;;;;;6094635;23;20408;-83
2022/04/04 10:24:00;;;;;;;10.07;1.70;;;9.60;45.70;;;;;;6093775;23;20030;-81
2022/04/04 10:26:30;;;;;;;2.75;1.33;;;9.70;44.10;;;;;;6106800;23;20105;-82
2022/04/04 10:29:16;;;;;;;5.70;1.58;;;9.60;43.30;;;;;;6254531;22;20032;-83
2022/04/04 10:31:45;;;;;;;2.00;1.33;;;9.50;42.80;;;;;;6270542;22;20020;-82
2022/04/04 10:34:17;;;;;;;1.60;1.20;;;9.60;44.30;;;;;;6248959;23;20020;-82
2022/04/04 10:36:59;;;;;;;3.67;1.20;;;9.80;43.00;;;;;;6279161;22;20040;-81
2022/04/04 10:39:41;;;;;;;3.80;1.50;;;10.00;42.80;;;;;;6249399;22;20024;-82
2022/04/04 10:42:30;;;;;;;3.50;1.50;;;10.10;42.40;;;;;;6248333;23;20028;-79
2022/04/04 10:45:00;;;;;;;6.85;1.77;;;10.20;42.50;;;;;;6246566;23;20031;-81
2022/04/04 10:47:30;;;;;;;4.03;1.77;;;10.10;43.00;;;;;;6245509;23;20028;-85
2022/04/04 10:50:16;;;;;;;129.35;81.25;;;10.30;41.80;;;;;;6251567;23;20055;-90
2022/04/04 10:52:44;;;;;;;2.92;1.77;;;10.20;41.10;;;;;;6251335;23;20051;-83
2022/04/04 10:55:44;;;;;;;3.22;1.63;;;10.10;41.30;;;;;;6251470;23;20048;-85
2022/04/04 10:58:13;;;;;;;3.33;1.85;;;10.10;41.90;;;;;;6278101;22;20027;-84
2022/04/04 11:00:59;;;;;;;2.05;1.70;;;10.20;42.10;;;;;;6290430;22;20420;-89
2022/04/04 11:03:34;;;;;;;3.38;2.22;;;10.30;42.30;;;;;;6290051;22;20039;-86
2022/04/04 11:09:11;;;;;;;6.72;2.05;;;10.30;42.10;;;;;;6287612;22;20058;-86
2022/04/04 11:11:49;;;;;;;7.30;1.90;;;10.30;42.50;;;;;;6281815;22;20397;-86
2022/04/04 11:14:19;;;;;;;6.35;1.73;;;10.60;42.90;;;;;;6282842;22;20043;-87
2022/04/04 11:17:19;;;;;;;4.03;1.92;;;10.80;42.00;;;;;;6284901;22;20023;-88
2022/04/04 11:19:47;;;;;;;9.05;2.30;;;10.80;39.70;;;;;;6278868;22;20011;-89
2022/04/04 11:22:18;;;;;;;4.00;2.10;;;11.00;40.70;;;;;;6293277;22;20031;-87
2022/04/04 11:24:49;;;;;;;3.35;1.95;;;10.90;40.80;;;;;;6280840;22;20340;-87
2022/04/04 11:27:16;;;;;;;3.13;2.03;;;11.10;40.10;;;;;;6280796;22;20024;-88
2022/04/04 11:29:43;;;;;;;2.53;2.05;;;11.10;39.60;;;;;;6279033;22;20102;-88
2022/04/04 11:32:15;;;;;;;5.50;2.00;;;10.90;38.90;;;;;;6282245;22;20027;-89
2022/04/04 11:34:42;;;;;;;4.78;2.08;;;11.00;39.10;;;;;;6287608;22;20024;-88
2022/04/04 11:37:19;;;;;;;6.63;2.70;;;11.20;38.30;;;;;;6281077;22;20034;-87
2022/04/04 11:39:47;;;;;;;3.42;2.47;;;11.30;37.90;;;;;;6278934;22;20110;-86
2022/04/04 11:42:15;;;;;;;3.63;2.00;;;11.30;38.70;;;;;;6276226;22;20024;-87
2022/04/04 11:44:46;;;;;;;5.63;2.30;;;11.30;38.70;;;;;;6276346;22;20119;-83
2022/04/04 11:47:14;;;;;;;7.15;2.67;;;11.40;38.20;;;;;;6275720;22;20105;-82
2022/04/04 11:49:43;;;;;;;4.15;2.20;;;11.40;38.10;;;;;;6275937;22;20020;-83
2022/04/04 11:52:15;;;;;;;3.40;2.13;;;11.50;38.00;;;;;;6277247;22;20039;-85
2022/04/04 11:54:44;;;;;;;;;;;11.40;38.10;;;;;;6278141;22;20098;-87
2022/04/04 11:57:12;;;;;;;4.55;2.10;;;11.40;38.90;;;;;;6281389;22;19915;-87
2022/04/04 11:59:43;;;;;;;3.95;2.25;;;11.50;38.90;;;;;;6284740;22;20032;-84
2022/04/04 12:02:13;;;;;;;5.72;2.67;;;11.40;38.50;;;;;;6282713;22;20028;-84
2022/04/04 12:04:41;;;;;;;4.70;2.55;;;11.60;39.40;;;;;;6278480;22;20098;-88
2022/04/04 12:07:11;;;;;;;5.22;2.95;;;11.60;39.20;;;;;;6277939;22;20024;-87
2022/04/04 12:09:39;;;;;;;7.75;2.50;;;11.60;39.40;;;;;;6276720;22;20675;-87
2022/04/04 12:12:09;;;;;;;9.18;3.03;;;11.70;39.30;;;;;;6276649;22;20509;-86
2022/04/04 12:14:38;;;;;;;4.45;3.05;;;11.70;39.30;;;;;;6273809;22;20037;-87
2022/04/04 12:17:05;;;;;;;6.30;2.80;;;11.70;39.80;;;;;;6276806;22;20030;-85
2022/04/04 12:19:32;;;;;;;7.43;2.80;;;11.90;39.60;;;;;;6275365;22;20362;-87
2022/04/04 12:21:59;;;;;;;4.30;3.00;;;11.90;39.10;;;;;;6277893;22;20066;-84
2022/04/04 12:27:14;;;;;;;4.55;2.63;;;12.00;39.80;;;;;;6295799;22;20050;-84
2022/04/04 12:29:42;;;;;;;8.15;2.72;;;12.10;39.60;;;;;;6285318;22;20034;-86
2022/04/04 12:32:17;;;;;;;5.53;2.72;;;11.90;39.80;;;;;;6276836;22;20269;-86
2022/04/04 12:34:58;;;;;;;8.68;2.92;;;11.90;40.10;;;;;;6278400;22;20039;-87
2022/04/04 12:37:36;;;;;;;6.35;2.60;;;12.10;40.00;;;;;;6277529;22;20085;-88
2022/04/04 12:40:25;;;;;;;9.80;4.18;;;12.30;40.50;;;;;;6275587;22;20104;-84
2022/04/04 12:43:05;;;;;;;5.60;2.72;;;12.20;39.90;;;;;;6266912;22;20315;-84
2022/04/04 12:45:33;;;;;;;5.05;2.42;;;12.20;40.80;;;;;;6273937;22;20035;-83
2022/04/04 12:48:01;;;;;;;4.80;2.28;;;12.20;41.60;;;;;;6274251;22;20336;-83
2022/04/04 12:50:39;;;;;;;6.03;2.92;;;12.30;40.60;;;;;;6274216;22;20099;-82
2022/04/04 12:53:08;;;;;;;4.65;2.85;;;12.10;41.90;;;;;;6277396;22;20444;-84
2022/04/04 12:55:36;;;;;;;6.78;2.92;;;12.30;41.50;;;;;;6278991;22;20100;-83
2022/04/04 12:58:20;;;;;;;7.05;3.20;;;12.40;41.20;;;;;;6274873;22;20123;-83
2022/04/04 13:00:47;;;;;;;4.95;2.70;;;12.20;41.60;;;;;;6246090;23;20277;-84
2022/04/04 13:03:25;;;;;;;8.73;3.20;;;12.00;41.90;;;;;;6272254;22;20077;-85
2022/04/04 13:05:54;;;;;;;7.75;3.03;;;12.20;41.60;;;;;;6256539;22;20027;-84
2022/04/04 13:08:23;;;;;;;8.98;3.17;;;12.10;42.20;;;;;;6247163;23;20343;-87
2022/04/04 13:11:03;;;;;;;8.65;3.42;;;12.20;42.50;;;;;;6247294;23;20044;-86
2022/04/04 13:13:33;;;;;;;8.13;3.35;;;12.30;42.50;;;;;;6249256;23;20039;-88
2022/04/04 13:16:01;;;;;;;9.10;3.00;;;12.40;43.00;;;;;;6248700;23;20024;-86
2022/04/04 13:18:27;;;;;;;6.38;2.92;;;12.40;42.80;;;;;;6252764;23;20019;-86
2022/04/04 13:20:55;;;;;;;3.70;2.72;;;12.30;42.40;;;;;;6255188;23;20024;-87
2022/04/04 13:23:22;;;;;;;5.47;2.90;;;12.30;42.60;;;;;;6251099;23;20020;-86
2022/04/04 13:25:51;;;;;;;5.45;2.83;;;12.30;42.80;;;;;;6250532;23;20054;-87
2022/04/04 13:28:18;;;;;;;7.90;3.25;;;12.40;42.80;;;;;;6259806;23;20024;-81
2022/04/04 13:30:46;;;;;;;5.65;3.33;;;12.30;43.10;;;;;;6270640;23;20055;-86
2022/04/04 13:33:13;;;;;;;5.60;3.30;;;12.50;43.90;;;;;;6270846;23;20035;-88
2022/04/04 13:35:40;;;;;;;12.48;3.47;;;12.40;42.90;;;;;;6260167;23;20028;-87
2022/04/04 13:38:07;;;;;;;7.97;3.35;;;12.30;43.20;;;;;;6254346;23;20373;-84
2022/04/04 13:40:34;;;;;;;7.82;3.50;;;12.30;43.60;;;;;;6251286;23;20054;-84
2022/04/04 13:43:01;;;;;;;5.82;3.33;;;12.20;43.90;;;;;;6250275;23;20028;-85